This is the latest recevied weather packets stored in our database for station/object R2AKT-13. If no packets are shown the sender has not sent any weather packets the latest 10 day(s).
| Time | Temp. | Humidity | Pressure | Rain* | Wind** | Luminosity | Snow |
|---|---|---|---|---|---|---|---|
| 1778061299 | 22.22° C | 43% | 984.4 hPa | - | 0 m/s | - | - |
| 1778060714 | 21.11° C | 45% | 984.4 hPa | - | 0.45 m/s, 201° | - | - |
| 1778060124 | 21.11° C | 44% | 984.4 hPa | - | 0 m/s | - | - |
| 1778059644 | 21.67° C | 45% | 984.4 hPa | - | 0.45 m/s, 264° | - | - |
| 1778059129 | 21.11° C | 46% | 984.3 hPa | - | 0.45 m/s, 100° | - | - |
| 1778058539 | 21.11° C | 45% | 984.4 hPa | - | 0 m/s | - | - |
| 1778057984 | 20.56° C | 47% | 984.4 hPa | - | 0 m/s | - | - |
| 1778057469 | 20.56° C | 46% | 984.4 hPa | - | 0.45 m/s, 266° | - | - |
| 1778056979 | 20.56° C | 46% | 984.4 hPa | - | 0.89 m/s, 208° | - | - |
| 1778056379 | 20° C | 48% | 984.5 hPa | - | 0.89 m/s, 213° | - | - |
| 1778055839 | 20° C | 47% | 984.4 hPa | - | 1.34 m/s, 243° | - | - |
| 1778055269 | 20.56° C | 47% | 984.3 hPa | - | 0.45 m/s, 158° | - | - |
| 1778054759 | 20° C | 47% | 984.4 hPa | - | 0.89 m/s, 269° | - | - |
| 1778054264 | 20° C | 47% | 984.3 hPa | - | 0.45 m/s, 145° | - | - |
| 1778053774 | 20° C | 48% | 984.2 hPa | - | 0.45 m/s, 275° | - | - |
| 1778053184 | 20° C | 50% | 984.4 hPa | - | 0.45 m/s, 206° | - | - |
| 1778052694 | 20° C | 51% | 984.5 hPa | - | 0.89 m/s, 102° | - | - |
| 1778052119 | 19.44° C | 53% | 984.6 hPa | - | 0.89 m/s, 161° | - | - |
| 1778051519 | 18.89° C | 54% | 984.5 hPa | - | 0.89 m/s, 254° | - | - |
| 1778050944 | 18.89° C | 55% | 984.1 hPa | - | 1.79 m/s, 268° | - | - |
| 1778050414 | 18.89° C | 55% | 984 hPa | - | 1.34 m/s, 222° | - | - |
| 1778049824 | 19.44° C | 53% | 984 hPa | - | 0.89 m/s, 157° | - | - |
| 1778049264 | 18.89° C | 55% | 984 hPa | - | 1.79 m/s, 304° | - | - |
| 1778048719 | 19.44° C | 53% | 983.9 hPa | - | 1.34 m/s, 186° | - | - |
| 1778048211 | 20° C | 51% | 983.7 hPa | - | 0.45 m/s, 136° | - | - |
* Rain since midnight (hover to see other rain measurements)
** Current wind speed in m/s (hover to see current wind gust speed)